Time;durP1;ratioP1;P1;durP2;ratioP2;P2;SDS_P1;SDS_P2;PMS_P1;PMS_P2;Temp;Humidity;BMP_temperature;BMP_pressure;BME280_temperature;BME280_humidity;BME280_pressure;Samples;Min_cycle;Max_cycle;Signal;HPM_P1;HPM_P2
2022/09/10 00:01:31;;;;;;;3.13;2.85;;;;;;;23.52;100.00;25051.22;5095417;28;20622;-63
2022/09/10 00:03:58;;;;;;;2.80;2.60;;;;;;;23.52;100.00;23736.72;5094925;28;20220;-62
2022/09/10 00:06:26;;;;;;;5.13;2.42;;;;;;;23.49;100.00;22093.09;5095379;28;20624;-62
2022/09/10 00:08:55;;;;;;;3.15;2.38;;;;;;;23.49;100.00;20779.84;5095205;28;20184;-62
2022/09/10 00:11:24;;;;;;;3.63;3.10;;;;;;;23.55;100.00;21438.81;5094863;28;20204;-62
2022/09/10 00:13:52;;;;;;;3.35;2.80;;;;;;;23.47;100.00;20122.81;5095298;28;20188;-62
2022/09/10 00:16:19;;;;;;;6.70;2.60;;;;;;;23.52;100.00;19468.19;5095089;28;20598;-62
2022/09/10 00:18:47;;;;;;;3.33;2.20;;;;;;;23.52;100.00;19468.38;5094732;28;20192;-62
2022/09/10 00:21:16;;;;;;;2.95;2.85;;;;;;;23.30;100.00;17492.50;5095086;28;20554;-62
2022/09/10 00:23:44;;;;;;;4.07;2.90;;;;;;;23.40;100.00;15201.53;5095005;28;20650;-62
2022/09/10 00:26:13;;;;;;;3.17;2.65;;;;;;;23.43;100.00;15530.13;5094831;28;20249;-62
2022/09/10 00:28:42;;;;;;;3.15;2.70;;;;;;;23.56;100.00;16189.88;5094767;28;20634;-62
2022/09/10 00:31:10;;;;;;;2.95;2.65;;;;;;;23.50;100.00;15860.19;5094761;28;20215;-62
2022/09/10 00:33:37;;;;;;;2.08;1.95;;;;;;;23.34;100.00;13889.50;5094439;28;20188;-62
2022/09/10 00:36:13;;;;;;;3.75;2.50;;;;;;;23.54;100.00;13895.13;5093524;28;20184;-63
2022/09/10 00:38:39;;;;;;;2.80;2.60;;;;;;;23.49;100.00;14548.94;5094797;28;20195;-62
2022/09/10 00:41:08;;;;;;;2.67;2.47;;;;;;;23.46;100.00;14548.06;5094376;28;20203;-63
2022/09/10 00:43:52;;;;;;;5.35;2.38;;;;;;;23.52;100.00;12911.97;5094636;28;20195;-62
2022/09/10 00:46:25;;;;;;;4.38;2.42;;;;;;;23.50;100.00;11274.47;5094693;28;20681;-63
2022/09/10 00:48:54;;;;;;;5.57;2.90;;;;;;;23.42;100.00;9636.59;5094414;28;20249;-63
2022/09/10 00:51:25;;;;;;;4.22;2.63;;;;;;;23.41;100.00;7347.53;5094412;28;20211;-61
2022/09/10 00:53:52;;;;;;;2.92;2.55;;;;;;;23.43;100.00;6694.06;5094225;28;20188;-64
2022/09/10 00:56:19;;;;;;;2.85;2.65;;;;;;;23.41;100.00;6040.19;5094046;28;20184;-62
2022/09/10 00:58:48;;;;;;;4.07;2.20;;;;;;;23.33;100.00;4079.28;5094047;28;20203;-63
2022/09/10 01:01:18;;;;;;;2.60;2.40;;;;;;;23.46;100.00;3427.81;5094108;28;20191;-62
2022/09/10 01:03:45;;;;;;;2.50;2.30;;;;;;;23.45;100.00;3427.69;5094236;28;20192;-64
2022/09/10 01:06:13;;;;;;;3.45;2.58;;;;;;;23.39;100.00;4080.03;5093819;28;20188;-63
2022/09/10 01:08:39;;;;;;;2.80;2.53;;;;;;;23.44;100.00;4080.66;5093793;28;20289;-63
2022/09/10 01:11:23;;;;;;;5.20;2.72;;;;;;;23.41;100.00;4406.84;5093655;28;20203;-63
2022/09/10 01:14:09;;;;;;;2.78;2.58;;;;;;;23.29;100.00;3425.88;5093728;28;20200;-64
2022/09/10 01:16:44;;;;;;;3.25;2.25;;;;;;;23.33;100.00;2773.50;5093390;28;20227;-62
2022/09/10 01:19:35;;;;;;;2.80;2.60;;;;;;;23.34;100.00;1794.59;5094057;28;20184;-62
2022/09/10 01:22:14;;;;;;;5.82;3.28;;;;;;;23.39;100.00;1142.47;5093506;28;20198;-63
2022/09/10 01:25:02;;;;;;;2.83;2.63;;;;;;;23.38;100.00;163.81;5093847;28;20554;-62
2022/09/10 01:27:42;;;;;;;3.10;2.63;;;;;;;23.43;100.00;-814.25;5093709;28;20187;-62
2022/09/10 01:30:13;;;;;;;3.20;2.35;;;;;;;23.44;100.00;-814.22;5093502;28;20201;-62
2022/09/10 01:32:52;;;;;;;4.88;2.92;;;;;;;23.42;100.00;-2118.34;5093320;28;20203;-62
2022/09/10 01:35:24;;;;;;;2.72;2.60;;;;;;;23.34;100.00;-3421.88;5093580;28;20206;-62
2022/09/10 01:37:55;;;;;;;2.65;2.45;;;;;;;23.37;100.00;-4073.38;5093157;28;20200;-62
2022/09/10 01:40:28;;;;;;;4.70;2.55;;;;;;;23.33;100.00;-4724.69;5093111;28;20195;-63
2022/09/10 01:43:00;;;;;;;3.28;2.38;;;;;;;23.31;100.00;-5050.25;5093651;28;20187;-63
2022/09/10 01:45:28;;;;;;;3.08;2.75;;;;;;;23.35;100.00;-4724.72;5093386;28;20184;-63
2022/09/10 01:48:22;;;;;;;2.38;2.28;;;;;;;23.36;100.00;-5701.56;5092955;28;20524;-62
2022/09/10 01:50:56;;;;;;;4.07;2.97;;;;;;;23.36;100.00;-6352.63;5092955;28;20199;-63
2022/09/10 01:53:39;;;;;;;6.10;2.70;;;;;;;23.43;100.00;-6678.44;5093151;28;20670;-63
2022/09/10 01:56:21;;;;;;;2.90;2.70;;;;;;;23.40;100.00;-6352.81;5093151;28;20187;-63
2022/09/10 01:58:49;;;;;;;4.30;2.75;;;;;;;23.45;100.00;-6678.56;5092823;28;20188;-64
2022/09/10 02:01:20;;;;;;;3.90;2.35;;;;;;;23.47;100.00;-7655.03;5092421;28;20188;-63
2022/09/10 02:03:53;;;;;;;5.72;2.72;;;;;;;23.34;100.00;-8630.06;5093006;28;20610;-63
2022/09/10 02:06:27;;;;;;;3.35;2.88;;;;;;;23.26;100.00;-9930.03;5092653;28;20188;-63
2022/09/10 02:08:55;;;;;;;4.05;2.55;;;;;;;23.33;100.00;-11230.97;5092818;28;20571;-62
2022/09/10 02:11:22;;;;;;;3.22;2.20;;;;;;;23.45;100.00;-12532.34;5092737;28;20536;-62
2022/09/10 02:13:51;;;;;;;4.60;2.60;;;;;;;23.40;100.00;-13830.94;5092799;28;20184;-63
2022/09/10 02:16:25;;;;;;;3.22;2.70;;;;;;;23.40;100.00;-15778.94;5092661;28;20184;-63
2022/09/10 02:18:52;;;;;;;2.90;2.70;;;;;;;23.34;100.00;-17075.66;5092435;28;20191;-63
2022/09/10 02:21:19;;;;;;;3.15;2.55;;;;;;;23.33;100.00;-18372.78;5092698;28;20188;-62
2022/09/10 02:23:50;;;;;;;2.38;2.17;;;;;;;23.35;100.00;-18375.16;5093004;28;20184;-62
2022/09/10 02:26:17;;;;;;;4.07;2.67;;;;;;;23.11;100.00;-18369.69;5092638;28;20192;-62
2022/09/10 02:28:47;;;;;;;3.88;2.30;;;;;;;23.37;100.00;-18375.63;5092325;28;20195;-62
2022/09/10 02:31:17;;;;;;;4.60;2.30;;;;;;;23.37;100.00;-18375.75;5092299;28;20188;-63
2022/09/10 02:33:44;;;;;;;6.75;2.80;;;;;;;23.20;100.00;-18371.84;5092216;28;20210;-62
2022/09/10 02:36:11;;;;;;;3.67;2.70;;;;;;;23.35;100.00;-18375.28;5092334;28;20198;-63
2022/09/10 02:38:38;;;;;;;4.28;2.28;;;;;;;23.32;100.00;-18374.56;5092298;28;20559;-64
2022/09/10 02:41:05;;;;;;;4.63;2.85;;;;;;;23.25;100.00;-18372.78;5092578;28;20185;-63
2022/09/10 02:43:36;;;;;;;5.60;2.78;;;;;;;23.20;100.00;-18371.84;5092146;28;20184;-63
2022/09/10 02:46:06;;;;;;;2.72;2.63;;;;;;;23.24;100.00;-18372.66;5092478;28;20619;-63
2022/09/10 02:48:34;;;;;;;3.28;2.53;;;;;;;23.33;100.00;-18374.69;5092460;28;20719;-63
2022/09/10 02:51:01;;;;;;;3.08;2.78;;;;;;;23.30;100.00;-18373.97;5091924;28;20180;-63
2022/09/10 02:53:29;;;;;;;2.70;2.50;;;;;;;23.30;100.00;-18374.09;5091998;28;20200;-62
2022/09/10 02:55:56;;;;;;;5.13;2.60;;;;;;;23.26;100.00;-18373.03;5092022;28;20250;-63
2022/09/10 02:58:23;;;;;;;2.92;2.67;;;;;;;23.23;100.00;-18372.44;5091952;28;20187;-62
2022/09/10 03:00:53;;;;;;;3.38;2.40;;;;;;;23.22;100.00;-18372.31;5091989;28;20218;-63
2022/09/10 03:03:20;;;;;;;3.30;2.42;;;;;;;23.26;100.00;-18373.03;5092106;28;20241;-64
2022/09/10 03:05:48;;;;;;;2.72;2.45;;;;;;;23.23;100.00;-18372.53;5092248;28;20210;-62
2022/09/10 03:08:15;;;;;;;3.03;2.65;;;;;;;23.19;100.00;-18371.59;5092237;28;20500;-63
2022/09/10 03:10:42;;;;;;;4.95;2.30;;;;;;;23.22;100.00;-18372.31;5092071;28;20543;-63
2022/09/10 03:13:09;;;;;;;3.30;2.60;;;;;;;23.29;100.00;-18373.75;5094358;28;20204;-63
2022/09/10 03:15:37;;;;;;;3.80;2.25;;;;;;;23.19;100.00;-18371.47;5095936;28;20191;-61
2022/09/10 03:18:04;;;;;;;4.15;2.35;;;;;;;23.13;100.00;-18370.16;5096195;28;20326;-62
2022/09/10 03:20:31;;;;;;;2.80;2.60;;;;;;;23.12;100.00;-18369.81;5096273;28;20202;-63
2022/09/10 03:22:59;;;;;;;2.90;2.47;;;;;;;23.11;100.00;-18369.69;5095914;28;20195;-62
2022/09/10 03:25:26;;;;;;;2.60;2.50;;;;;;;23.18;100.00;-18371.25;5096194;28;20630;-61
2022/09/10 03:27:53;;;;;;;4.13;2.63;;;;;;;23.19;100.00;-18371.59;5095825;28;20191;-63
2022/09/10 03:30:22;;;;;;;2.72;2.53;;;;;;;23.08;100.00;-18369.00;5095788;28;20290;-62
2022/09/10 03:32:49;;;;;;;5.47;3.10;;;;;;;23.20;100.00;-18371.84;5095682;28;20208;-63
2022/09/10 03:35:16;;;;;;;2.83;2.58;;;;;;;23.11;100.00;-18369.69;5095909;28;20187;-63
2022/09/10 03:37:43;;;;;;;4.90;2.65;;;;;;;23.14;100.00;-18370.41;5095722;28;20212;-63
2022/09/10 03:40:12;;;;;;;3.35;2.22;;;;;;;23.28;100.00;-18373.50;5095534;28;20188;-64
2022/09/10 03:42:39;;;;;;;2.90;2.58;;;;;;;23.31;100.00;-18374.31;5095748;28;20206;-63
2022/09/10 03:45:07;;;;;;;2.95;2.30;;;;;;;23.36;100.00;-18375.50;5095731;28;20210;-63
2022/09/10 03:47:35;;;;;;;3.00;2.80;;;;;;;23.34;100.00;-18374.94;5095487;28;20555;-62
2022/09/10 03:50:02;;;;;;;3.35;2.65;;;;;;;23.35;100.00;-18375.28;5095269;28;20188;-63
2022/09/10 03:52:29;;;;;;;2.38;2.22;;;;;;;23.47;100.00;-18378.00;5095548;28;20696;-62
2022/09/10 03:54:56;;;;;;;4.75;2.53;;;;;;;23.50;100.00;-18378.72;5095597;28;20188;-61
2022/09/10 03:57:25;;;;;;;2.95;2.72;;;;;;;23.54;100.00;-18379.66;5095256;28;20245;-62
2022/09/10 03:59:52;;;;;;;2.55;2.45;;;;;;;23.54;100.00;-18379.78;5095109;28;20184;-63
2022/09/10 04:02:19;;;;;;;3.03;2.40;;;;;;;23.56;100.00;-18380.16;5095084;28;20188;-62
2022/09/10 04:04:46;;;;;;;3.45;2.42;;;;;;;23.49;100.00;-18378.47;5095372;28;20180;-63
2022/09/10 04:07:13;;;;;;;6.00;2.63;;;;;;;23.56;100.00;-18380.16;5094883;28;20191;-62
2022/09/10 04:09:39;;;;;;;2.70;2.35;;;;;;;23.64;100.00;-18382.16;5094880;28;20191;-63
2022/09/10 04:12:07;;;;;;;4.22;2.30;;;;;;;23.59;100.00;-18380.84;5094916;28;20183;-64
2022/09/10 04:14:35;;;;;;;2.90;2.70;;;;;;;23.65;100.00;-18382.41;5095297;28;20195;-63
2022/09/10 04:17:02;;;;;;;6.68;3.00;;;;;;;23.66;100.00;-18382.63;5094815;28;20278;-63
2022/09/10 04:19:29;;;;;;;3.67;2.28;;;;;;;23.71;100.00;-18381.81;5094955;28;20194;-62
2022/09/10 04:21:56;;;;;;;3.90;2.33;;;;;;;23.63;100.00;-18055.56;5095170;28;20223;-63
2022/09/10 04:24:23;;;;;;;2.28;2.17;;;;;;;23.82;100.00;-17735.28;5094428;28;20198;-63
2022/09/10 04:26:53;;;;;;;2.78;2.10;;;;;;;23.83;100.00;-15137.69;5094899;28;20181;-62
2022/09/10 04:29:20;;;;;;;2.40;2.20;;;;;;;23.77;100.00;-15786.06;5094520;28;20181;-62
2022/09/10 04:31:49;;;;;;;6.07;2.65;;;;;;;23.85;100.00;-15137.97;5094445;28;20190;-62
2022/09/10 04:34:16;;;;;;;3.67;2.42;;;;;;;23.75;100.00;-13836.69;5094884;28;20211;-61
2022/09/10 04:36:43;;;;;;;4.50;2.65;;;;;;;23.83;100.00;-13513.00;5094654;28;20188;-63
2022/09/10 04:39:10;;;;;;;4.38;2.58;;;;;;;23.91;100.00;-13839.25;5094828;28;20200;-64
2022/09/10 04:41:37;;;;;;;3.78;2.40;;;;;;;23.93;100.00;-13839.66;5094649;28;20605;-62
2022/09/10 04:44:05;;;;;;;3.80;2.05;;;;;;;23.87;100.00;-13838.66;5094261;28;20212;-63
2022/09/10 04:46:32;;;;;;;4.53;2.55;;;;;;;23.86;100.00;-14163.41;5094554;28;20207;-63
2022/09/10 04:49:00;;;;;;;2.83;2.13;;;;;;;24.00;100.00;-13515.72;5094135;28;20194;-62
2022/09/10 04:51:27;;;;;;;4.65;2.40;;;;;;;23.93;100.00;-12864.38;5094117;28;20188;-62
2022/09/10 04:53:54;;;;;;;3.28;2.40;;;;;;;23.99;100.00;-13190.34;5094395;28;20674;-63
2022/09/10 04:56:21;;;;;;;3.40;2.25;;;;;;;24.00;100.00;-13840.81;5094132;28;20180;-63
2022/09/10 04:58:48;;;;;;;8.40;2.58;;;;;;;24.00;100.00;-13840.81;5093910;28;20227;-62
2022/09/10 05:01:15;;;;;;;3.30;2.38;;;;;;;23.99;100.00;-13515.56;5093832;28;20191;-62
2022/09/10 05:03:42;;;;;;;4.68;2.40;;;;;;;24.04;100.00;-13191.13;5094233;28;20574;-62
2022/09/10 05:06:10;;;;;;;5.05;2.17;;;;;;;24.06;100.00;-12866.25;5093774;28;20200;-63
2022/09/10 05:08:37;;;;;;;4.10;2.60;;;;;;;24.06;100.00;-11890.56;5093733;28;20199;-63
2022/09/10 05:11:04;;;;;;;2.90;2.20;;;;;;;24.06;100.00;-10263.66;5093691;28;20180;-63
2022/09/10 05:13:31;;;;;;;5.22;2.42;;;;;;;24.20;100.00;-8311.25;5093694;28;20204;-63
2022/09/10 05:15:58;;;;;;;4.05;2.20;;;;;;;24.44;100.00;-5052.94;5093956;28;20616;-62
2022/09/10 05:18:25;;;;;;;3.10;2.25;;;;;;;24.50;100.00;-3421.59;5093966;28;20580;-63
2022/09/10 05:20:52;;;;;;;2.72;2.45;;;;;;;24.61;100.00;-2442.13;5094041;28;20185;-63
2022/09/10 05:23:23;;;;;;;3.28;2.22;;;;;;;24.87;100.00;1153.63;5093696;28;20195;-61
2022/09/10 05:25:50;;;;;;;2.72;2.00;;;;;;;25.23;100.00;11971.84;5093389;28;20189;-62
2022/09/10 05:28:17;;;;;;;5.03;2.25;;;;;;;26.35;100.00;48705.91;5093825;28;20528;-62
2022/09/10 05:30:45;;;;;;;3.55;1.60;;;;;;;26.54;100.00;77446.63;5093290;28;20180;-63
2022/09/10 05:33:12;;;;;;;2.70;1.83;;;;;;;26.68;100.00;87881.97;5093324;28;20219;-64
2022/09/10 05:35:39;;;;;;;1.77;1.67;;;;;;;26.57;100.00;81478.84;5092508;28;20198;-62
2022/09/10 05:38:07;;;;;;;2.05;1.95;;;;;;;26.81;100.00;93290.09;5093215;28;20223;-63
2022/09/10 05:40:35;;;;;;;1.73;1.63;;;;;;;27.10;100.00;121782.38;5091851;28;20200;-62
2022/09/10 05:43:02;;;;;;;3.92;1.70;;;;;;;27.22;100.00;152887.66;5093545;28;20599;-63
2022/09/10 05:45:29;;;;;;;2.90;1.75;;;;;;;27.19;100.00;140553.63;5093122;28;20192;-62
2022/09/10 05:47:56;;;;;;;2.08;1.88;;;;;;;27.67;100.00;153002.84;5093102;28;20184;-62
2022/09/10 05:50:23;;;;;;;3.95;2.30;;;;;;;27.20;100.00;152882.56;5093285;28;20637;-63
2022/09/10 05:52:50;;;;;;;4.00;1.75;;;;;;;27.35;100.00;152920.94;5093160;28;20190;-62
2022/09/10 05:55:17;;;;;;;2.03;1.80;;;;;;;27.41;100.00;152936.31;5093043;28;20184;-63
2022/09/10 05:57:46;;;;;;;4.32;1.90;;;;;;;27.82;100.00;153040.00;5092858;28;20191;-63
2022/09/10 06:00:13;;;;;;;3.35;1.88;;;;;;;27.73;100.00;153015.66;5092047;28;20184;-63
2022/09/10 06:02:40;;;;;;;4.45;1.70;;;;;;;27.57;100.00;152976.00;5092753;28;20234;-63
2022/09/10 06:05:08;;;;;;;3.00;2.03;;;;;;;27.08;100.00;149304.25;5092792;28;20187;-62
2022/09/10 06:07:35;;;;;;;3.95;1.83;;;;;;;26.62;100.00;120665.19;5092725;28;20199;-63
2022/09/10 06:10:02;;;;;;;6.38;2.15;;;;;;;26.74;100.00;112206.53;5092693;28;20199;-63
2022/09/10 06:12:29;;;;;;;3.10;1.85;;;;;;;26.51;100.00;130164.56;5092621;28;20630;-63
2022/09/10 06:14:57;;;;;;;3.00;2.03;;;;;;;26.90;100.00;142536.31;5092362;28;20210;-63
2022/09/10 06:17:24;;;;;;;2.88;1.77;;;;;;;26.79;100.00;137729.56;5092440;28;20274;-62
2022/09/10 06:19:51;;;;;;;2.70;2.15;;;;;;;26.84;100.00;122749.03;5092673;28;20283;-62
2022/09/10 06:22:18;;;;;;;3.95;1.83;;;;;;;26.87;100.00;135357.63;5092481;28;20245;-64
2022/09/10 06:24:48;;;;;;;3.15;2.05;;;;;;;26.89;100.00;133314.31;5092488;28;20179;-63
2022/09/10 06:27:16;;;;;;;3.72;2.30;;;;;;;27.19;100.00;152881.28;5092761;28;20635;-63
2022/09/10 06:29:43;;;;;;;2.20;2.10;;;;;;;27.28;100.00;152903.03;5092286;28;20199;-63
2022/09/10 06:32:11;;;;;;;2.85;2.47;;;;;;;27.25;100.00;152896.63;5092278;28;20184;-63
2022/09/10 06:34:38;;;;;;;1.85;1.65;;;;;;;27.08;100.00;152851.84;5092373;28;20211;-62
2022/09/10 06:37:05;;;;;;;5.38;2.03;;;;;;;26.91;100.00;152809.63;5092241;28;20195;-63
2022/09/10 06:39:32;;;;;;;3.00;2.22;;;;;;;27.23;100.00;152891.53;5092790;28;20674;-62
2022/09/10 06:41:59;;;;;;;2.72;1.65;;;;;;;27.57;100.00;152977.28;5092182;28;20198;-63
2022/09/10 06:44:28;;;;;;;2.28;2.08;;;;;;;27.81;100.00;153037.41;5092351;28;20180;-64
2022/09/10 06:46:55;;;;;;;2.47;2.00;;;;;;;27.96;100.00;153074.56;5092067;28;20226;-63
2022/09/10 06:49:24;;;;;;;3.45;2.20;;;;;;;28.20;100.00;153136.03;5092369;28;20190;-63
2022/09/10 06:51:51;;;;;;;2.58;1.70;;;;;;;28.40;100.00;153187.22;5092384;28;20565;-63
2022/09/10 06:54:18;;;;;;;3.72;1.90;;;;;;;27.58;100.00;152978.56;5092363;28;20686;-63
2022/09/10 06:56:45;;;;;;;2.53;2.10;;;;;;;27.55;100.00;152972.16;5091925;28;20184;-63
2022/09/10 06:59:14;;;;;;;3.25;1.80;;;;;;;27.43;100.00;152940.13;5092012;28;20280;-62
2022/09/10 07:01:41;;;;;;;1.88;1.67;;;;;;;27.44;100.00;152943.97;5091922;28;20191;-63
2022/09/10 07:04:08;;;;;;;6.50;2.30;;;;;;;27.19;100.00;152880.00;5091824;28;20180;-62
2022/09/10 07:06:37;;;;;;;8.50;2.20;;;;;;;27.50;100.00;152958.06;5092088;28;20210;-63
2022/09/10 07:09:04;;;;;;;1.83;1.73;;;;;;;27.19;100.00;152880.00;5092109;28;20626;-62
2022/09/10 07:11:31;;;;;;;5.38;2.28;;;;;;;27.49;100.00;152956.81;5091693;28;20176;-63
2022/09/10 07:14:00;;;;;;;1.98;1.70;;;;;;;26.95;100.00;152818.56;5091975;28;20230;-62
2022/09/10 07:16:28;;;;;;;9.10;1.85;;;;;;;26.61;100.00;152734.13;5091585;28;20293;-63
2022/09/10 07:18:57;;;;;;;2.10;1.90;;;;;;;26.41;100.00;150972.94;5091849;28;20191;-63
2022/09/10 07:21:26;;;;;;;1.92;1.83;;;;;;;26.24;100.00;131468.47;5091764;28;20194;-64
2022/09/10 07:23:57;;;;;;;2.05;1.90;;;;;;;26.46;100.00;134241.84;5091635;28;20275;-64
2022/09/10 07:26:24;;;;;;;4.63;2.38;;;;;;;26.40;100.00;123339.03;5091657;28;20187;-62
2022/09/10 07:28:52;;;;;;;2.00;1.90;;;;;;;26.39;100.00;135931.88;5091929;28;20203;-63
2022/09/10 07:31:20;;;;;;;2.25;1.70;;;;;;;26.35;100.00;119594.19;5091962;28;20188;-62
2022/09/10 07:33:48;;;;;;;5.47;2.10;;;;;;;26.72;100.00;152762.28;5091523;28;20204;-63
2022/09/10 07:36:16;;;;;;;2.90;2.03;;;;;;;26.73;100.00;152764.81;5091629;28;20191;-63
2022/09/10 07:38:44;;;;;;;2.20;2.00;;;;;;;27.01;100.00;152833.94;5091707;28;20200;-63
2022/09/10 07:41:14;;;;;;;1.80;1.70;;;;;;;27.08;100.00;152851.84;5091630;28;20275;-62
2022/09/10 07:43:43;;;;;;;2.53;2.25;;;;;;;27.11;100.00;152860.84;5091295;28;20190;-62
2022/09/10 07:46:12;;;;;;;2.08;1.80;;;;;;;27.27;100.00;152900.47;5091419;28;20188;-62
2022/09/10 07:48:40;;;;;;;5.05;1.85;;;;;;;27.04;100.00;152842.88;5091516;28;20180;-62
2022/09/10 07:51:09;;;;;;;2.47;1.70;;;;;;;27.23;100.00;152890.25;5090242;28;20651;-63
2022/09/10 07:53:37;;;;;;;1.95;1.85;;;;;;;27.30;100.00;152908.13;5091551;28;20211;-63
2022/09/10 07:56:06;;;;;;;5.53;1.95;;;;;;;27.11;100.00;152859.53;5091421;28;20184;-63
2022/09/10 07:58:37;;;;;;;2.95;1.98;;;;;;;27.05;100.00;152844.19;5093117;28;20184;-63
2022/09/10 08:01:10;;;;;;;2.30;2.15;;;;;;;26.90;100.00;152805.81;5095412;28;20224;-63
2022/09/10 08:03:37;;;;;;;2.25;2.03;;;;;;;26.95;100.00;152819.84;5095406;28;20234;-62
2022/09/10 08:06:05;;;;;;;2.97;2.42;;;;;;;27.08;100.00;152851.84;5094995;28;20188;-62
2022/09/10 08:08:34;;;;;;;4.00;2.63;;;;;;;26.97;100.00;152823.72;5094942;28;20194;-64
2022/09/10 08:11:08;;;;;;;5.35;2.38;;;;;;;27.29;100.00;152905.56;5095293;28;20558;-64
2022/09/10 08:13:37;;;;;;;2.25;2.05;;;;;;;27.04;100.00;152842.88;5095505;28;20562;-65
2022/09/10 08:16:06;;;;;;;4.05;2.22;;;;;;;27.18;100.00;152878.72;5095012;28;20253;-63
2022/09/10 08:18:34;;;;;;;4.10;2.20;;;;;;;27.55;100.00;152970.88;5093801;28;20678;-63
2022/09/10 08:21:01;;;;;;;6.50;2.08;;;;;;;26.87;100.00;152799.41;5094665;28;20217;-62
2022/09/10 08:23:29;;;;;;;5.30;2.15;;;;;;;26.94;100.00;152816.06;5094742;28;20192;-63
2022/09/10 08:25:57;;;;;;;2.30;2.10;;;;;;;26.95;100.00;152819.84;5094854;28;20619;-63
2022/09/10 08:28:26;;;;;;;2.85;2.40;;;;;;;26.51;100.00;152707.28;5094954;28;20569;-63
2022/09/10 08:30:59;;;;;;;2.15;1.90;;;;;;;26.60;100.00;152730.31;5094826;28;20188;-61
2022/09/10 08:33:27;;;;;;;5.15;2.20;;;;;;;26.64;100.00;152741.84;5094390;28;20276;-63
2022/09/10 08:35:56;;;;;;;2.85;2.22;;;;;;;26.44;100.00;152689.41;5094383;28;20181;-61
2022/09/10 08:38:24;;;;;;;2.33;2.10;;;;;;;26.53;100.00;152713.66;5094301;28;20196;-62
2022/09/10 08:40:55;;;;;;;2.50;2.33;;;;;;;26.72;100.00;152762.28;5094391;28;20192;-63
2022/09/10 08:43:32;;;;;;;3.67;2.35;;;;;;;26.79;100.00;152780.19;5094714;28;20676;-63
2022/09/10 08:46:04;;;;;;;5.40;2.10;;;;;;;27.04;100.00;152842.88;5094506;28;20211;-63
2022/09/10 08:48:36;;;;;;;3.20;2.08;;;;;;;26.90;100.00;152805.81;5094485;28;20188;-63
2022/09/10 08:51:11;;;;;;;2.40;2.15;;;;;;;26.90;100.00;152805.81;5094393;28;20630;-62
2022/09/10 08:53:46;;;;;;;2.78;2.00;;;;;;;26.59;100.00;152727.75;5094352;28;20266;-62
2022/09/10 08:56:16;;;;;;;5.20;1.90;;;;;;;26.58;100.00;152726.47;5094249;28;20270;-62
2022/09/10 08:58:49;;;;;;;2.45;2.25;;;;;;;26.80;100.00;152782.75;5094005;28;20192;-63
2022/09/10 09:01:29;;;;;;;2.28;2.03;;;;;;;26.97;100.00;152825.00;5094091;28;20184;-63
2022/09/10 09:03:58;;;;;;;2.20;2.03;;;;;;;27.20;100.00;152882.56;5094412;28;20624;-62
2022/09/10 09:06:33;;;;;;;4.80;2.42;;;;;;;27.31;100.00;152910.69;5093922;28;20188;-62
2022/09/10 09:09:01;;;;;;;2.33;2.13;;;;;;;27.21;100.00;152885.09;5093722;28;20187;-62
2022/09/10 09:11:41;;;;;;;3.03;2.45;;;;;;;26.90;100.00;152805.81;5092896;28;20184;-62
2022/09/10 09:14:26;;;;;;;2.92;2.50;;;;;;;27.12;100.00;152862.06;5093662;28;20203;-62
2022/09/10 09:17:18;;;;;;;3.33;2.25;;;;;;;27.12;100.00;152862.06;5093565;28;20327;-63
2022/09/10 09:19:52;;;;;;;3.95;1.90;;;;;;;27.07;100.00;152849.31;5093823;28;20634;-63
2022/09/10 09:22:26;;;;;;;3.65;1.90;;;;;;;27.06;100.00;152846.75;5093684;28;20203;-64
2022/09/10 09:24:56;;;;;;;7.18;2.20;;;;;;;26.93;100.00;152814.78;5093474;28;20234;-64
2022/09/10 09:27:27;;;;;;;2.28;1.83;;;;;;;26.85;100.00;152793.03;5093779;28;20531;-62
2022/09/10 09:30:00;;;;;;;2.45;2.00;;;;;;;26.57;100.00;152722.63;5093767;28;20581;-63
2022/09/10 09:32:31;;;;;;;2.55;2.15;;;;;;;26.59;100.00;152729.03;5093336;28;20283;-62
2022/09/10 09:35:09;;;;;;;1.92;1.83;;;;;;;26.67;100.00;152749.50;5093312;28;20296;-63
2022/09/10 09:37:38;;;;;;;2.95;2.20;;;;;;;26.63;100.00;152737.97;5093177;28;20245;-62
2022/09/10 09:40:14;;;;;;;4.20;2.15;;;;;;;26.66;100.00;152746.94;5093227;28;20184;-63
2022/09/10 09:42:47;;;;;;;6.88;2.05;;;;;;;26.73;100.00;152764.81;5093337;28;20194;-61
2022/09/10 09:45:23;;;;;;;2.05;1.90;;;;;;;26.33;100.00;152663.81;5093146;28;20177;-62
2022/09/10 09:47:53;;;;;;;2.35;2.15;;;;;;;26.83;100.00;152789.13;5093190;28;20220;-62
2022/09/10 09:50:21;;;;;;;2.50;2.30;;;;;;;26.72;100.00;152762.28;5093173;28;20237;-61
2022/09/10 09:52:51;;;;;;;4.63;2.35;;;;;;;27.00;100.00;152832.66;5093070;28;20559;-63
2022/09/10 09:55:28;;;;;;;2.55;2.10;;;;;;;27.53;100.00;152967.06;5093191;28;20570;-62
2022/09/10 09:58:30;;;;;;;3.25;2.00;;;;;;;27.85;100.00;153046.38;5093179;28;20631;-63
2022/09/10 10:01:13;;;;;;;4.97;1.90;;;;;;;28.39;100.00;153184.66;5093347;28;20244;-63
2022/09/10 10:03:49;;;;;;;2.15;1.80;;;;;;;28.52;100.00;153216.66;5092697;28;20184;-62
2022/09/10 10:06:18;;;;;;;1.70;1.45;;;;;;;28.60;100.00;153237.19;5092985;28;20203;-63
2022/09/10 10:08:53;;;;;;;1.58;1.48;;;;;;;28.36;100.00;153176.97;5092651;28;20181;-62
2022/09/10 10:11:22;;;;;;;2.22;1.92;;;;;;;28.32;100.00;153166.75;5092645;28;20274;-62
2022/09/10 10:13:51;;;;;;;3.25;1.67;;;;;;;28.68;100.00;153256.38;5092828;28;20210;-62
2022/09/10 10:16:22;;;;;;;3.35;1.83;;;;;;;28.06;100.00;153101.41;5092464;28;20200;-62
2022/09/10 10:18:50;;;;;;;1.80;1.70;;;;;;;28.12;100.00;153116.84;5092809;28;20246;-63
2022/09/10 10:21:20;;;;;;;2.30;2.20;;;;;;;27.76;100.00;153023.31;5092415;28;20184;-62
2022/09/10 10:23:48;;;;;;;2.15;2.03;;;;;;;27.73;100.00;153016.94;5092644;28;20626;-62
2022/09/10 10:26:29;;;;;;;1.80;1.70;;;;;;;27.68;100.00;153004.13;5092412;28;20272;-62
2022/09/10 10:29:00;;;;;;;3.38;1.90;;;;;;;27.90;100.00;153059.16;5092373;28;20176;-62
2022/09/10 10:31:38;;;;;;;2.00;1.90;;;;;;;27.93;100.00;153066.84;5092581;28;20211;-62
2022/09/10 10:34:23;;;;;;;2.45;1.90;;;;;;;27.90;100.00;153059.16;5092274;28;20241;-63
2022/09/10 10:36:59;;;;;;;3.88;1.90;;;;;;;28.02;100.00;153089.88;5092526;28;20195;-63
2022/09/10 10:39:44;;;;;;;2.00;1.90;;;;;;;27.58;100.00;152979.81;5092589;28;20203;-62
2022/09/10 10:42:19;;;;;;;2.22;2.03;;;;;;;27.54;100.00;152969.56;5092148;28;20613;-63
2022/09/10 10:45:04;;;;;;;2.45;2.03;;;;;;;27.73;100.00;153016.94;5092472;28;20604;-62
2022/09/10 10:47:48;;;;;;;1.90;1.80;;;;;;;27.82;100.00;153038.69;5092319;28;20681;-62
2022/09/10 10:50:30;;;;;;;2.75;1.80;;;;;;;29.44;100.00;153451.16;5092270;28;20188;-63
2022/09/10 10:53:21;;;;;;;2.55;1.88;;;;;;;30.79;100.00;153792.13;5092067;28;20192;-62
2022/09/10 10:55:55;;;;;;;3.15;1.80;;;;;;;30.03;100.00;153598.53;5091986;28;20200;-64
2022/09/10 10:58:37;;;;;;;2.50;2.30;;;;;;;28.57;100.00;153230.75;5091877;28;20263;-62
2022/09/10 11:01:14;;;;;;;2.75;1.95;;;;;;;27.85;100.00;153047.66;5091864;28;20184;-64
2022/09/10 11:03:47;;;;;;;3.38;2.05;;;;;;;27.04;100.00;152842.88;5091935;28;20184;-62
2022/09/10 11:06:19;;;;;;;8.23;2.40;;;;;;;26.54;100.00;152716.25;5092107;28;20650;-62
2022/09/10 11:08:50;;;;;;;2.25;2.05;;;;;;;26.35;100.00;152668.91;5092142;28;20695;-63
2022/09/10 11:11:22;;;;;;;2.40;2.20;;;;;;;26.28;100.00;152649.75;5092043;28;20210;-62
2022/09/10 11:13:56;;;;;;;2.42;2.05;;;;;;;25.85;100.00;152542.31;5092008;28;20694;-62
2022/09/10 11:16:31;;;;;;;7.10;2.42;;;;;;;26.22;100.00;135894.28;5091420;28;20230;-64
2022/09/10 11:19:03;;;;;;;3.25;2.85;;;;;;;26.22;100.00;140670.31;5092163;28;20183;-63
2022/09/10 11:21:34;;;;;;;2.60;2.50;;;;;;;26.32;100.00;144793.34;5091807;28;20231;-63
2022/09/10 11:24:08;;;;;;;4.20;2.40;;;;;;;26.20;100.00;138616.81;5091912;28;20215;-62
2022/09/10 11:26:40;;;;;;;2.45;2.33;;;;;;;26.03;100.00;152587.06;5092094;28;20188;-62
2022/09/10 11:29:21;;;;;;;2.88;2.58;;;;;;;26.11;100.00;147979.34;5092023;28;20626;-63
2022/09/10 11:31:55;;;;;;;3.58;2.72;;;;;;;25.80;100.00;131373.66;5091642;28;20214;-63
2022/09/10 11:34:33;;;;;;;2.65;2.42;;;;;;;25.73;100.00;115064.63;5094831;28;20256;-63